Time;durP1;ratioP1;P1;durP2;ratioP2;P2;SDS_P1;SDS_P2;PMS_P1;PMS_P2;Temp;Humidity;BMP_temperature;BMP_pressure;BME280_temperature;BME280_humidity;BME280_pressure;Samples;Min_cycle;Max_cycle;Signal;HPM_P1;HPM_P2
2021/01/02 00:03:00;;;;;;;26.33;10.43;;;4.00;99.90;;;;;;5074311;28;20443;-72
2021/01/02 00:05:37;;;;;;;20.20;9.67;;;4.10;99.90;;;;;;5087772;28;20544;-71
2021/01/02 00:08:08;;;;;;;22.90;10.33;;;4.10;99.90;;;;;;5074306;28;20541;-71
2021/01/02 00:10:58;;;;;;;22.37;10.17;;;4.10;99.90;;;;;;5091648;28;20547;-72
2021/01/02 00:14:13;;;;;;;17.10;8.37;;;4.10;99.90;;;;;;5073314;28;20456;-71
2021/01/02 00:16:56;;;;;;;21.13;8.90;;;4.10;99.90;;;;;;5051953;28;20458;-71
2021/01/02 00:19:28;;;;;;;22.93;9.73;;;4.10;99.90;;;;;;5078737;27;20543;-70
2021/01/02 00:22:06;;;;;;;18.27;8.70;;;4.10;99.90;;;;;;5111510;27;20455;-71
2021/01/02 00:24:37;;;;;;;21.07;9.53;;;4.10;99.90;;;;;;5094433;27;20508;-71
2021/01/02 00:27:47;;;;;;;22.43;9.37;;;4.10;99.90;;;;;;5071926;28;20866;-71
2021/01/02 00:30:43;;;;;;;18.93;9.80;;;4.10;99.90;;;;;;5026772;28;20467;-72
2021/01/02 00:33:09;;;;;;;22.13;9.47;;;4.10;99.90;;;;;;5087466;28;20460;-71
2021/01/02 00:35:37;;;;;;;22.07;10.20;;;4.10;99.90;;;;;;5063729;28;20455;-71
2021/01/02 00:38:05;;;;;;;18.47;8.23;;;4.10;99.90;;;;;;5066408;28;20222;-71
2021/01/02 00:40:36;;;;;;;20.00;8.07;;;4.10;99.90;;;;;;5101024;28;20456;-71
2021/01/02 00:43:03;;;;;;;17.60;8.30;;;4.10;99.90;;;;;;5086058;28;20470;-71
2021/01/02 00:45:31;;;;;;;21.73;10.10;;;4.10;99.90;;;;;;5090345;28;20909;-71
2021/01/02 00:47:57;;;;;;;19.60;9.10;;;4.00;99.90;;;;;;5076408;28;20448;-71
2021/01/02 00:50:29;;;;;;;17.77;8.90;;;4.00;99.90;;;;;;5053227;28;20463;-72
2021/01/02 00:53:05;;;;;;;17.63;8.00;;;4.00;99.90;;;;;;5072675;28;20462;-72
2021/01/02 00:55:48;;;;;;;17.97;8.77;;;4.00;99.90;;;;;;5073010;28;20453;-71
2021/01/02 00:58:50;;;;;;;21.17;9.33;;;4.00;99.90;;;;;;5058115;28;20490;-71
2021/01/02 01:01:25;;;;;;;17.80;8.60;;;4.00;99.90;;;;;;5090786;28;20481;-70
2021/01/02 01:04:08;;;;;;;15.90;9.47;;;4.00;99.90;;;;;;5075772;28;20482;-71
2021/01/02 01:06:41;;;;;;;19.20;8.50;;;3.90;99.90;;;;;;5106903;27;20460;-71
2021/01/02 01:09:06;;;;;;;18.53;7.47;;;3.90;99.90;;;;;;5090037;28;20472;-71
2021/01/02 01:11:36;;;;;;;18.00;7.60;;;3.90;99.90;;;;;;5084629;28;20502;-72
2021/01/02 01:14:05;;;;;;;19.17;7.40;;;3.90;99.90;;;;;;5076669;28;20236;-72
2021/01/02 01:16:47;;;;;;;18.83;8.07;;;3.90;99.90;;;;;;5101584;28;20480;-71
2021/01/02 01:19:18;;;;;;;18.47;8.47;;;3.90;99.90;;;;;;5078623;28;20475;-71
2021/01/02 01:21:46;;;;;;;21.03;7.67;;;3.90;99.90;;;;;;5091053;28;20465;-71
2021/01/02 01:24:16;;;;;;;17.43;6.63;;;3.90;99.90;;;;;;5062708;27;20527;-71
2021/01/02 01:26:51;;;;;;;19.27;8.43;;;3.90;99.90;;;;;;5099008;28;21036;-70
2021/01/02 01:29:28;;;;;;;13.77;6.80;;;3.90;99.90;;;;;;5112937;28;20516;-71
2021/01/02 01:31:58;;;;;;;17.90;8.13;;;3.90;99.90;;;;;;5074542;28;20968;-72
2021/01/02 01:34:26;;;;;;;17.70;7.40;;;3.90;99.90;;;;;;5073785;28;20468;-72
2021/01/02 01:36:52;;;;;;;17.50;7.80;;;3.90;99.90;;;;;;5079919;27;20439;-71
2021/01/02 01:39:23;;;;;;;15.47;8.10;;;3.80;99.90;;;;;;5111494;28;20502;-72
2021/01/02 01:42:00;;;;;;;17.57;7.60;;;3.80;99.90;;;;;;5072174;28;20471;-70
2021/01/02 01:44:46;;;;;;;17.53;8.30;;;3.80;99.90;;;;;;5094933;27;20462;-73
2021/01/02 01:47:15;;;;;;;17.17;7.97;;;3.80;99.90;;;;;;5097664;27;20462;-71
2021/01/02 01:49:41;;;;;;;18.50;8.03;;;3.80;99.90;;;;;;5079087;28;20587;-71
2021/01/02 01:52:25;;;;;;;15.57;8.93;;;3.80;99.90;;;;;;5078656;27;20531;-71
2021/01/02 01:55:13;;;;;;;11.80;6.87;;;3.80;99.90;;;;;;5093130;28;20251;-71
2021/01/02 01:57:40;;;;;;;21.50;8.30;;;3.90;99.90;;;;;;5112844;27;20501;-70
2021/01/02 02:00:14;;;;;;;24.03;9.80;;;3.90;99.90;;;;;;5074972;28;20451;-71
2021/01/02 02:02:39;;;;;;;17.47;8.43;;;3.90;99.90;;;;;;5075420;28;20463;-72
2021/01/02 02:05:09;;;;;;;18.00;8.37;;;3.90;99.90;;;;;;5102263;27;20481;-70
2021/01/02 02:08:00;;;;;;;14.67;7.60;;;3.90;99.90;;;;;;5095588;28;20286;-72
2021/01/02 02:10:31;;;;;;;13.33;6.97;;;3.90;99.90;;;;;;5108779;27;20458;-71
2021/01/02 02:16:40;;;;;;;16.90;7.80;;;3.90;99.90;;;;;;5109530;28;20464;-72
2021/01/02 02:19:44;;;;;;;12.20;6.90;;;3.90;99.90;;;;;;5097529;28;20444;-71
2021/01/02 02:22:15;;;;;;;11.47;7.00;;;3.90;99.90;;;;;;5075821;28;20498;-72
2021/01/02 02:24:43;;;;;;;15.47;7.53;;;3.90;99.90;;;;;;5076442;28;20527;-72
2021/01/02 02:27:13;;;;;;;13.03;7.10;;;3.80;99.90;;;;;;5084074;28;20457;-72
2021/01/02 02:30:07;;;;;;;16.17;8.07;;;3.90;99.90;;;;;;5075903;28;20464;-72
2021/01/02 02:32:38;;;;;;;14.70;7.23;;;3.90;99.90;;;;;;5081670;28;20802;-72
2021/01/02 02:35:09;;;;;;;11.73;6.83;;;3.90;99.90;;;;;;5092626;28;20464;-68
2021/01/02 02:37:37;;;;;;;17.63;7.30;;;3.90;99.90;;;;;;5094692;27;20483;-72
2021/01/02 02:40:06;;;;;;;15.27;6.50;;;3.90;99.90;;;;;;5045205;28;20449;-68
2021/01/02 02:42:35;;;;;;;15.20;8.20;;;3.90;99.90;;;;;;5086074;28;20464;-72
2021/01/02 02:45:02;;;;;;;17.83;7.83;;;3.90;99.90;;;;;;5076324;28;20452;-70
2021/01/02 02:47:31;;;;;;;16.30;6.60;;;3.90;99.90;;;;;;5075271;27;20969;-72
2021/01/02 02:49:58;;;;;;;14.03;8.30;;;3.80;99.90;;;;;;5068168;28;20464;-71
2021/01/02 02:52:37;;;;;;;14.57;7.03;;;3.80;99.90;;;;;;5073407;28;21025;-72
2021/01/02 02:55:04;;;;;;;18.57;8.17;;;3.80;99.90;;;;;;5082495;28;20463;-72
2021/01/02 02:57:31;;;;;;;14.60;7.50;;;3.90;99.90;;;;;;5084147;27;20453;-73
2021/01/02 02:59:57;;;;;;;17.40;7.43;;;3.90;99.90;;;;;;5092261;27;20547;-69
2021/01/02 03:02:25;;;;;;;16.33;7.07;;;3.80;99.90;;;;;;5066682;28;20820;-72
2021/01/02 03:04:50;;;;;;;20.10;9.20;;;3.80;99.90;;;;;;5098517;28;20607;-71
2021/01/02 03:07:17;;;;;;;13.73;6.43;;;3.80;99.90;;;;;;5092813;27;20861;-72
2021/01/02 03:09:43;;;;;;;11.13;6.60;;;3.80;99.90;;;;;;5101175;28;21029;-71
2021/01/02 03:12:09;;;;;;;16.70;8.53;;;3.80;99.90;;;;;;5088481;28;20460;-69
2021/01/02 03:14:35;;;;;;;14.30;7.23;;;3.80;99.90;;;;;;5091258;28;20448;-72
2021/01/02 03:17:01;;;;;;;14.97;6.93;;;3.80;99.90;;;;;;5092420;28;20658;-71
2021/01/02 03:19:28;;;;;;;17.03;7.03;;;3.80;99.90;;;;;;5084778;28;20957;-71
2021/01/02 03:21:55;;;;;;;16.30;7.97;;;3.80;99.90;;;;;;5073940;28;20460;-71
2021/01/02 03:24:21;;;;;;;15.17;7.60;;;3.80;99.90;;;;;;5086320;28;20465;-71
2021/01/02 03:26:46;;;;;;;14.40;7.30;;;3.80;99.90;;;;;;5085028;28;20523;-71
2021/01/02 03:29:12;;;;;;;13.47;7.03;;;3.80;99.90;;;;;;5098445;28;20558;-71
2021/01/02 03:31:38;;;;;;;13.87;7.43;;;3.80;99.90;;;;;;5070396;28;20711;-71
2021/01/02 03:34:04;;;;;;;16.03;6.90;;;3.80;99.90;;;;;;5104017;28;20387;-71
2021/01/02 03:36:30;;;;;;;17.43;7.40;;;3.80;99.90;;;;;;5091738;28;20456;-71
2021/01/02 03:38:57;;;;;;;12.30;7.07;;;3.80;99.90;;;;;;5076595;28;20988;-72
2021/01/02 03:41:24;;;;;;;13.07;7.57;;;3.80;99.90;;;;;;5096457;27;20227;-72
2021/01/02 03:43:50;;;;;;;12.50;6.77;;;3.90;99.90;;;;;;5083587;28;20444;-71
2021/01/02 03:46:16;;;;;;;11.13;6.43;;;3.80;99.90;;;;;;5082587;28;20453;-71
2021/01/02 03:48:41;;;;;;;15.23;7.83;;;3.80;99.90;;;;;;5058734;28;20474;-72
2021/01/02 03:51:07;;;;;;;14.30;5.47;;;3.80;99.90;;;;;;5071976;28;20302;-69
2021/01/02 03:53:33;;;;;;;14.90;7.57;;;3.80;99.90;;;;;;5061288;28;20306;-71
2021/01/02 03:55:59;;;;;;;15.87;7.47;;;3.80;99.90;;;;;;5058196;28;20219;-70
2021/01/02 03:58:26;;;;;;;16.07;6.10;;;3.80;99.90;;;;;;5054605;28;20236;-72
2021/01/02 04:01:03;;;;;;;10.00;6.10;;;3.80;99.90;;;;;;5066144;28;20491;-72
2021/01/02 04:03:28;;;;;;;12.67;7.53;;;3.80;99.90;;;;;;5069895;27;20457;-72
2021/01/02 04:05:54;;;;;;;16.60;7.80;;;3.80;99.90;;;;;;5074945;28;20455;-72
2021/01/02 04:08:20;;;;;;;16.43;6.63;;;3.80;99.90;;;;;;5062523;28;20590;-73
2021/01/02 04:10:45;;;;;;;15.10;6.97;;;3.80;99.90;;;;;;5074285;28;20215;-71
2021/01/02 04:13:11;;;;;;;15.00;6.50;;;3.80;99.90;;;;;;5058127;28;20218;-71
2021/01/02 04:15:37;;;;;;;15.03;6.07;;;3.80;99.90;;;;;;5068742;28;20241;-71
2021/01/02 04:18:02;;;;;;;15.30;6.87;;;3.80;99.90;;;;;;5053019;28;20210;-71
2021/01/02 04:20:28;;;;;;;13.10;6.77;;;3.80;99.90;;;;;;5070998;28;20666;-71
2021/01/02 04:22:54;;;;;;;13.93;6.80;;;3.80;99.90;;;;;;5085871;28;20314;-70
2021/01/02 04:25:19;;;;;;;13.33;7.67;;;3.80;99.90;;;;;;5070779;28;20275;-71
2021/01/02 04:27:45;;;;;;;14.77;7.70;;;3.80;99.90;;;;;;5048024;28;20221;-71
2021/01/02 04:30:11;;;;;;;13.80;7.30;;;3.70;99.90;;;;;;5085266;27;20237;-72
2021/01/02 04:32:37;;;;;;;14.73;7.80;;;3.70;99.90;;;;;;5076328;28;20300;-71
2021/01/02 04:35:04;;;;;;;13.80;7.30;;;3.70;99.90;;;;;;5064978;28;20500;-72
2021/01/02 04:37:30;;;;;;;17.37;7.53;;;3.80;99.90;;;;;;5058204;27;20454;-72
2021/01/02 04:39:56;;;;;;;15.70;9.37;;;3.80;99.90;;;;;;5069456;28;20482;-72
2021/01/02 04:42:23;;;;;;;12.00;7.47;;;3.70;99.90;;;;;;5069372;28;20857;-72
2021/01/02 04:44:53;;;;;;;18.70;7.50;;;3.70;99.90;;;;;;5075924;28;20999;-71
2021/01/02 04:47:19;;;;;;;13.60;7.47;;;3.70;99.90;;;;;;5093274;27;20490;-72
2021/01/02 04:49:48;;;;;;;14.40;7.93;;;3.70;99.90;;;;;;5083555;28;20476;-72
2021/01/02 04:52:17;;;;;;;14.60;6.90;;;3.70;99.90;;;;;;5094021;27;20460;-71
2021/01/02 04:54:49;;;;;;;14.27;7.13;;;3.70;99.90;;;;;;5094501;27;20463;-72
2021/01/02 04:57:18;;;;;;;15.90;7.70;;;3.70;99.90;;;;;;5064798;28;20966;-71
2021/01/02 04:59:49;;;;;;;13.27;6.83;;;3.70;99.90;;;;;;5070888;28;20453;-71
2021/01/02 05:02:19;;;;;;;11.53;5.63;;;3.70;99.90;;;;;;5074409;28;20448;-72
2021/01/02 05:04:46;;;;;;;12.40;6.77;;;3.70;99.90;;;;;;5102910;27;20445;-71
2021/01/02 05:07:22;;;;;;;13.67;6.87;;;3.70;99.90;;;;;;5076059;28;20537;-71
2021/01/02 05:09:49;;;;;;;15.90;6.57;;;3.70;99.90;;;;;;5090467;28;20501;-71
2021/01/02 05:12:32;;;;;;;12.33;6.47;;;3.80;99.90;;;;;;5071274;28;20463;-70
2021/01/02 05:15:03;;;;;;;11.77;6.50;;;3.80;99.90;;;;;;5054073;28;20801;-71
2021/01/02 05:17:29;;;;;;;19.20;8.60;;;3.70;99.90;;;;;;5086992;28;20501;-72
2021/01/02 05:20:11;;;;;;;16.23;7.70;;;3.70;99.90;;;;;;5108077;28;20449;-71
2021/01/02 05:22:39;;;;;;;14.07;6.90;;;3.80;99.90;;;;;;5075040;28;20452;-69
2021/01/02 05:25:13;;;;;;;13.93;6.93;;;3.80;99.90;;;;;;5056280;28;20488;-70
2021/01/02 05:27:41;;;;;;;14.03;7.17;;;3.80;99.90;;;;;;5090422;28;20478;-70
2021/01/02 05:30:29;;;;;;;10.80;6.33;;;3.80;99.90;;;;;;5057584;28;20494;-70
2021/01/02 05:33:07;;;;;;;13.23;8.20;;;3.80;99.90;;;;;;5095083;28;20443;-70
2021/01/02 05:35:35;;;;;;;14.30;7.13;;;3.80;99.90;;;;;;5083972;28;20464;-70
2021/01/02 05:38:09;;;;;;;14.40;7.03;;;3.80;99.90;;;;;;5074316;28;20882;-71
2021/01/02 05:40:40;;;;;;;14.70;6.70;;;3.80;99.90;;;;;;5087855;28;20454;-72
2021/01/02 05:43:06;;;;;;;12.63;7.03;;;3.80;99.90;;;;;;5090410;28;20479;-71
2021/01/02 05:45:32;;;;;;;16.30;7.40;;;3.80;99.90;;;;;;5053760;28;20488;-70
2021/01/02 05:48:10;;;;;;;15.40;7.80;;;3.80;99.90;;;;;;5061639;28;20744;-72
2021/01/02 05:51:00;;;;;;;17.17;8.03;;;3.80;99.90;;;;;;5108286;28;20457;-71
2021/01/02 05:53:28;;;;;;;14.40;6.30;;;3.80;99.90;;;;;;5093382;28;20467;-70
2021/01/02 05:56:01;;;;;;;13.43;6.80;;;3.80;99.90;;;;;;5094505;28;20449;-70
2021/01/02 05:58:47;;;;;;;13.20;7.33;;;3.80;99.90;;;;;;5088485;28;20455;-72
2021/01/02 06:01:18;;;;;;;14.67;7.47;;;3.80;99.90;;;;;;5065255;28;20444;-71
2021/01/02 06:03:48;;;;;;;10.83;6.40;;;3.80;99.90;;;;;;5080278;28;20971;-74
2021/01/02 06:06:18;;;;;;;14.87;7.47;;;3.80;99.90;;;;;;5066748;28;20464;-71
2021/01/02 06:08:51;;;;;;;10.63;6.70;;;3.80;99.90;;;;;;5074141;28;20480;-73
2021/01/02 06:11:17;;;;;;;12.77;7.80;;;3.80;99.90;;;;;;5082261;28;20460;-74
2021/01/02 06:13:46;;;;;;;17.60;6.83;;;3.80;99.90;;;;;;5094203;28;20458;-74
2021/01/02 06:16:12;;;;;;;16.67;8.10;;;3.80;99.90;;;;;;5094762;28;20222;-73
2021/01/02 06:18:39;;;;;;;18.53;7.20;;;3.80;99.90;;;;;;5076674;27;20450;-73
2021/01/02 06:21:08;;;;;;;17.30;8.30;;;3.80;99.90;;;;;;5080856;28;20283;-74
2021/01/02 06:23:35;;;;;;;15.83;8.70;;;3.80;99.90;;;;;;5090916;28;20487;-73
2021/01/02 06:26:04;;;;;;;15.13;7.20;;;3.80;99.90;;;;;;5061026;28;20956;-73
2021/01/02 06:28:32;;;;;;;11.87;7.10;;;3.80;99.90;;;;;;5076968;28;20461;-72
2021/01/02 06:31:02;;;;;;;17.73;7.87;;;3.80;99.90;;;;;;5076891;28;20448;-74
2021/01/02 06:33:29;;;;;;;14.23;6.60;;;3.80;99.90;;;;;;5110879;28;20501;-74
2021/01/02 06:35:55;;;;;;;13.10;7.20;;;3.80;99.90;;;;;;5093951;28;20452;-74
2021/01/02 06:38:22;;;;;;;12.03;6.90;;;3.80;99.90;;;;;;5094122;28;20452;-73
2021/01/02 06:40:49;;;;;;;13.00;6.27;;;3.80;99.90;;;;;;5093378;28;21034;-74
2021/01/02 06:43:17;;;;;;;17.17;9.37;;;3.80;99.90;;;;;;5098810;27;20463;-71
2021/01/02 06:45:45;;;;;;;12.47;6.93;;;3.80;99.90;;;;;;5097053;27;20487;-73
2021/01/02 06:48:31;;;;;;;14.97;6.83;;;3.80;99.90;;;;;;5132734;27;20452;-74
2021/01/02 06:51:02;;;;;;;14.13;6.63;;;3.80;99.90;;;;;;5090094;28;20510;-74
2021/01/02 06:53:32;;;;;;;15.90;7.73;;;3.80;99.90;;;;;;5094214;28;20452;-73
2021/01/02 06:56:05;;;;;;;13.60;6.90;;;3.70;99.90;;;;;;5093388;28;21097;-74
2021/01/02 06:58:38;;;;;;;14.87;7.03;;;3.70;99.90;;;;;;5099145;27;20456;-73
2021/01/02 07:01:05;;;;;;;12.87;7.13;;;3.80;99.90;;;;;;5097735;27;20466;-74
2021/01/02 07:03:52;;;;;;;12.70;6.10;;;3.80;99.90;;;;;;5091589;28;20960;-73
2021/01/02 07:06:21;;;;;;;19.70;8.33;;;3.80;99.90;;;;;;5056464;28;20869;-70
2021/01/02 07:09:09;;;;;;;20.27;9.60;;;3.80;99.90;;;;;;5076241;28;20464;-74
2021/01/02 07:11:43;;;;;;;38.03;13.67;;;3.80;99.90;;;;;;5104332;28;20461;-74
2021/01/02 07:14:12;;;;;;;53.57;18.23;;;3.70;99.90;;;;;;5090388;28;20453;-74
2021/01/02 07:16:58;;;;;;;40.30;19.80;;;3.70;99.90;;;;;;5089258;28;20481;-75
2021/01/02 07:19:27;;;;;;;37.57;17.30;;;3.70;99.90;;;;;;5078242;28;20459;-74
2021/01/02 07:22:06;;;;;;;30.87;13.73;;;3.70;99.90;;;;;;5109986;28;20457;-74
2021/01/02 07:25:08;;;;;;;19.73;10.60;;;3.70;99.90;;;;;;5075150;28;20571;-72
2021/01/02 07:27:39;;;;;;;24.80;10.27;;;3.70;99.90;;;;;;5038694;28;20457;-73
2021/01/02 07:30:09;;;;;;;16.70;9.57;;;3.80;99.90;;;;;;5078200;28;20472;-73
2021/01/02 07:32:39;;;;;;;23.20;9.20;;;3.70;99.90;;;;;;5092537;28;21045;-73
2021/01/02 07:35:15;;;;;;;20.53;9.13;;;3.70;99.90;;;;;;5094159;27;20506;-73
2021/01/02 07:37:43;;;;;;;13.40;7.50;;;3.70;99.90;;;;;;5096036;27;21009;-72
2021/01/02 07:40:16;;;;;;;13.47;7.13;;;3.70;99.90;;;;;;5089715;28;20453;-72
2021/01/02 07:42:49;;;;;;;14.80;8.20;;;3.70;99.90;;;;;;5063397;28;20459;-72
2021/01/02 07:45:25;;;;;;;18.10;7.00;;;3.70;99.90;;;;;;5091224;27;20459;-72
2021/01/02 07:47:59;;;;;;;11.97;6.70;;;3.70;99.90;;;;;;5113274;27;20680;-71
2021/01/02 07:50:30;;;;;;;14.57;7.27;;;3.70;99.90;;;;;;5091768;28;20459;-72
2021/01/02 07:52:57;;;;;;;10.80;6.27;;;3.70;99.90;;;;;;5105869;28;20436;-71
2021/01/02 07:55:24;;;;;;;14.80;8.03;;;3.70;99.90;;;;;;5093583;28;20507;-72
2021/01/02 07:57:50;;;;;;;18.83;9.40;;;3.60;99.90;;;;;;5085310;28;20448;-70
2021/01/02 08:00:16;;;;;;;12.80;6.70;;;3.60;99.90;;;;;;5072094;28;21003;-71
2021/01/02 08:02:42;;;;;;;14.50;7.77;;;3.70;99.90;;;;;;5082721;28;20273;-70
2021/01/02 08:05:10;;;;;;;13.93;8.67;;;3.70;99.90;;;;;;5052874;28;20462;-72
2021/01/02 08:07:36;;;;;;;13.23;7.70;;;3.70;99.90;;;;;;5099695;27;20279;-71
2021/01/02 08:10:03;;;;;;;15.17;7.07;;;3.70;99.90;;;;;;5089848;28;21003;-72
2021/01/02 08:12:30;;;;;;;17.90;7.30;;;3.70;99.90;;;;;;5065781;28;20522;-72
2021/01/02 08:14:55;;;;;;;16.73;8.00;;;3.70;99.90;;;;;;5110200;28;20459;-72
2021/01/02 08:17:21;;;;;;;12.60;8.13;;;3.70;99.90;;;;;;5041255;28;20531;-72
2021/01/02 08:19:47;;;;;;;16.70;8.17;;;3.70;99.90;;;;;;5074404;28;20283;-72
2021/01/02 08:22:14;;;;;;;20.90;8.70;;;3.70;99.90;;;;;;5091711;28;20714;-71
2021/01/02 08:24:45;;;;;;;18.93;9.90;;;3.70;99.90;;;;;;5090867;28;20231;-73
2021/01/02 08:27:11;;;;;;;16.80;9.37;;;3.70;99.90;;;;;;5091950;28;20470;-71
2021/01/02 08:29:36;;;;;;;17.33;10.30;;;3.70;99.90;;;;;;5058489;28;20985;-69
2021/01/02 08:32:12;;;;;;;20.40;10.03;;;3.70;99.90;;;;;;5041242;28;20307;-72
2021/01/02 08:34:38;;;;;;;16.87;9.27;;;3.70;99.90;;;;;;5091265;28;20735;-71
2021/01/02 08:37:07;;;;;;;18.90;10.60;;;3.70;99.90;;;;;;5099662;28;20444;-71
2021/01/02 08:39:33;;;;;;;14.00;7.93;;;3.70;99.90;;;;;;5091344;28;20214;-70
2021/01/02 08:42:00;;;;;;;12.73;7.30;;;3.70;99.90;;;;;;5070887;28;20499;-71
2021/01/02 08:44:38;;;;;;;16.47;7.03;;;3.70;99.90;;;;;;5087189;28;20457;-70
2021/01/02 08:47:06;;;;;;;15.30;7.37;;;3.70;99.90;;;;;;5070525;28;20451;-70
2021/01/02 08:49:33;;;;;;;17.13;8.53;;;3.60;99.90;;;;;;5033299;28;20551;-71
2021/01/02 08:52:21;;;;;;;14.00;7.67;;;3.60;99.90;;;;;;5070670;28;20456;-70
2021/01/02 08:54:49;;;;;;;19.23;8.10;;;3.70;99.90;;;;;;5053560;28;20539;-69
2021/01/02 08:57:30;;;;;;;14.23;9.27;;;3.70;99.90;;;;;;5105900;28;20459;-71
2021/01/02 09:00:10;;;;;;;16.23;7.20;;;3.70;99.90;;;;;;5065379;28;20456;-70
2021/01/02 09:02:37;;;;;;;15.00;7.90;;;3.70;99.90;;;;;;5070374;28;20464;-70
2021/01/02 09:05:06;;;;;;;14.57;7.50;;;3.70;99.90;;;;;;5070887;28;20474;-70
2021/01/02 09:07:31;;;;;;;17.23;8.13;;;3.70;99.90;;;;;;5107106;28;20471;-71
2021/01/02 09:10:18;;;;;;;11.00;5.80;;;3.70;99.90;;;;;;5074575;28;20483;-70
2021/01/02 09:13:00;;;;;;;15.13;6.70;;;3.70;99.90;;;;;;5070580;28;20227;-70
2021/01/02 09:15:59;;;;;;;11.70;6.60;;;3.70;99.90;;;;;;5087641;28;20461;-70
2021/01/02 09:18:28;;;;;;;14.27;7.10;;;3.70;99.90;;;;;;5052128;28;20453;-70
2021/01/02 09:21:09;;;;;;;10.97;5.70;;;3.80;99.90;;;;;;5070548;28;20450;-70
2021/01/02 09:23:35;;;;;;;12.80;7.43;;;3.80;99.90;;;;;;5070585;28;21044;-71
2021/01/02 09:26:02;;;;;;;13.80;8.27;;;3.80;99.90;;;;;;5074031;28;20964;-70
2021/01/02 09:28:28;;;;;;;10.50;7.17;;;3.80;99.90;;;;;;5074055;28;20481;-71
2021/01/02 09:30:54;;;;;;;13.93;7.10;;;3.80;99.90;;;;;;5107921;28;20460;-70
2021/01/02 09:33:19;;;;;;;14.43;7.10;;;3.80;99.90;;;;;;5090612;28;20225;-70
2021/01/02 09:35:47;;;;;;;12.87;7.40;;;3.80;99.90;;;;;;5098526;28;20440;-72
2021/01/02 09:38:13;;;;;;;13.80;7.00;;;3.80;99.90;;;;;;5076853;28;20246;-70
2021/01/02 09:40:41;;;;;;;14.63;6.93;;;3.80;99.90;;;;;;5070560;28;20873;-70
2021/01/02 09:43:10;;;;;;;13.03;6.73;;;3.80;99.90;;;;;;5070370;28;20460;-70
2021/01/02 09:45:35;;;;;;;11.07;6.40;;;3.80;99.90;;;;;;5071488;28;20459;-70
2021/01/02 09:48:01;;;;;;;16.10;6.70;;;3.80;99.90;;;;;;5110239;27;20450;-70
2021/01/02 09:50:27;;;;;;;16.10;7.10;;;3.80;99.90;;;;;;5094685;27;20221;-70
2021/01/02 09:52:52;;;;;;;14.50;7.30;;;3.80;99.90;;;;;;5074936;28;20242;-70
2021/01/02 09:55:18;;;;;;;13.43;6.60;;;3.90;99.90;;;;;;5093327;28;20222;-70
2021/01/02 09:57:48;;;;;;;10.70;6.20;;;3.90;99.90;;;;;;5077081;28;20230;-70
2021/01/02 10:00:15;;;;;;;17.63;8.13;;;3.90;99.90;;;;;;5096838;27;20214;-70
2021/01/02 10:02:40;;;;;;;11.93;6.90;;;3.90;99.90;;;;;;5082235;27;20925;-70
2021/01/02 10:05:07;;;;;;;11.87;7.00;;;3.90;99.90;;;;;;5078721;28;20541;-70
2021/01/02 10:07:33;;;;;;;15.63;7.30;;;3.90;99.90;;;;;;5112444;28;20225;-70
2021/01/02 10:09:58;;;;;;;11.33;6.53;;;3.90;99.90;;;;;;5078049;28;20470;-70
2021/01/02 10:12:24;;;;;;;15.90;7.53;;;3.90;99.90;;;;;;5084933;27;20267;-71
2021/01/02 10:14:50;;;;;;;13.70;7.57;;;3.90;99.90;;;;;;5080890;27;20217;-71
2021/01/02 10:17:16;;;;;;;16.00;7.90;;;3.90;99.90;;;;;;5094904;27;20245;-70
2021/01/02 10:19:45;;;;;;;18.00;8.37;;;3.90;99.90;;;;;;5085715;28;20325;-71
2021/01/02 10:22:11;;;;;;;10.37;6.97;;;3.90;99.90;;;;;;5059709;28;20489;-71
2021/01/02 10:24:37;;;;;;;15.57;8.33;;;4.00;99.90;;;;;;5073916;28;20521;-70
2021/01/02 10:27:04;;;;;;;12.57;6.37;;;3.90;99.90;;;;;;5075297;28;20453;-71
2021/01/02 10:29:30;;;;;;;12.87;6.17;;;4.00;99.90;;;;;;5101671;27;20225;-70
2021/01/02 10:32:04;;;;;;;11.87;6.33;;;3.90;99.90;;;;;;5071068;28;20474;-71
2021/01/02 10:34:29;;;;;;;12.03;6.00;;;3.90;99.90;;;;;;5075472;28;20250;-71
2021/01/02 10:36:55;;;;;;;11.27;6.10;;;4.00;99.90;;;;;;5093874;28;20476;-71
2021/01/02 10:39:22;;;;;;;9.97;7.03;;;4.00;99.90;;;;;;5108305;27;20206;-71
2021/01/02 10:41:49;;;;;;;10.73;6.00;;;4.00;99.90;;;;;;5079337;28;20475;-70
2021/01/02 10:44:17;;;;;;;14.00;7.60;;;4.00;99.90;;;;;;5103771;28;20539;-71
2021/01/02 10:46:51;;;;;;;14.80;7.37;;;4.00;99.90;;;;;;5110027;27;20467;-70
2021/01/02 10:49:19;;;;;;;15.90;8.83;;;4.10;99.90;;;;;;5123291;27;20471;-70
2021/01/02 10:51:45;;;;;;;15.00;8.10;;;4.10;99.90;;;;;;5091804;27;20547;-70
2021/01/02 10:54:13;;;;;;;12.13;6.87;;;4.10;99.90;;;;;;5114197;27;20459;-70
2021/01/02 10:56:46;;;;;;;17.30;7.17;;;4.10;99.90;;;;;;5081287;28;20475;-72
2021/01/02 10:59:12;;;;;;;15.57;8.67;;;4.10;99.90;;;;;;5100017;27;20831;-70
2021/01/02 11:01:47;;;;;;;10.37;6.73;;;4.10;99.90;;;;;;5113740;27;20911;-71
2021/01/02 11:04:14;;;;;;;14.80;7.10;;;4.10;99.90;;;;;;5097903;27;20456;-69
2021/01/02 11:06:43;;;;;;;12.90;6.87;;;4.10;99.90;;;;;;5096176;28;20467;-71
2021/01/02 11:09:11;;;;;;;13.63;6.97;;;4.10;99.90;;;;;;5077286;27;20456;-71
2021/01/02 11:11:36;;;;;;;11.00;5.80;;;4.10;99.90;;;;;;5117569;27;20461;-71
2021/01/02 11:14:03;;;;;;;11.27;5.63;;;4.20;99.90;;;;;;5093937;27;20539;-71
2021/01/02 11:16:37;;;;;;;12.50;7.20;;;4.20;99.90;;;;;;5083852;28;20264;-71
2021/01/02 11:19:11;;;;;;;13.37;7.83;;;4.20;99.90;;;;;;5075753;27;20523;-69
2021/01/02 11:21:38;;;;;;;13.43;6.97;;;4.20;99.90;;;;;;5100821;28;21163;-71
2021/01/02 11:24:04;;;;;;;9.27;5.50;;;4.20;99.90;;;;;;5073696;28;20445;-69
2021/01/02 11:26:30;;;;;;;9.43;6.23;;;4.20;99.90;;;;;;5054173;28;20478;-70
2021/01/02 11:28:55;;;;;;;12.50;5.90;;;4.30;99.90;;;;;;5057160;28;20464;-70
2021/01/02 11:31:33;;;;;;;9.37;5.07;;;4.30;99.90;;;;;;5047215;28;20293;-69
2021/01/02 11:33:59;;;;;;;8.50;6.27;;;4.30;99.90;;;;;;5079686;28;20223;-69
2021/01/02 11:36:24;;;;;;;9.47;4.57;;;4.30;99.90;;;;;;5086145;28;20456;-71
2021/01/02 11:38:50;;;;;;;7.70;4.77;;;4.30;99.90;;;;;;5042250;28;20214;-70
2021/01/02 11:41:28;;;;;;;6.73;5.73;;;4.30;99.90;;;;;;5086290;28;20964;-71
2021/01/02 11:43:53;;;;;;;8.87;4.57;;;4.30;99.90;;;;;;5090354;28;20222;-70
2021/01/02 11:46:34;;;;;;;9.40;4.57;;;4.30;99.90;;;;;;5087167;27;20437;-70
2021/01/02 11:48:59;;;;;;;8.67;4.80;;;4.30;99.90;;;;;;5091747;28;20293;-70
2021/01/02 11:51:25;;;;;;;7.20;5.40;;;4.30;99.90;;;;;;5084008;28;20987;-70
2021/01/02 11:53:51;;;;;;;10.77;5.17;;;4.40;99.90;;;;;;5087770;28;20214;-70
2021/01/02 11:56:25;;;;;;;7.90;4.67;;;4.30;99.90;;;;;;5100291;28;20225;-69
2021/01/02 11:58:52;;;;;;;8.57;5.17;;;4.30;99.90;;;;;;5068431;28;20449;-70
2021/01/02 12:01:19;;;;;;;7.83;4.77;;;4.40;99.90;;;;;;5086475;28;20847;-70
2021/01/02 12:03:45;;;;;;;7.57;5.50;;;4.40;99.90;;;;;;5081293;28;20461;-69
2021/01/02 12:06:11;;;;;;;7.23;4.50;;;4.40;99.90;;;;;;5081544;28;20575;-72
2021/01/02 12:08:37;;;;;;;8.70;5.17;;;4.40;99.90;;;;;;5089113;27;20536;-69
2021/01/02 12:11:06;;;;;;;9.70;5.07;;;4.40;99.90;;;;;;5069489;28;20573;-71
2021/01/02 12:13:38;;;;;;;12.27;6.80;;;4.50;99.90;;;;;;5070742;27;20215;-71
2021/01/02 12:16:04;;;;;;;13.03;7.80;;;4.50;99.90;;;;;;5071821;28;20484;-70
2021/01/02 12:18:30;;;;;;;9.63;7.20;;;4.50;99.90;;;;;;5097669;28;20456;-70
2021/01/02 12:20:56;;;;;;;11.17;7.73;;;4.50;99.90;;;;;;5046742;28;20513;-70
2021/01/02 12:23:21;;;;;;;13.40;9.07;;;4.50;99.90;;;;;;5035079;28;20217;-70
2021/01/02 12:25:47;;;;;;;12.10;7.70;;;4.50;99.90;;;;;;5043378;28;20233;-70
2021/01/02 12:28:13;;;;;;;12.07;7.50;;;4.50;99.90;;;;;;5085915;28;20223;-70
2021/01/02 12:30:38;;;;;;;8.43;6.27;;;4.50;99.90;;;;;;5074311;28;20236;-72
2021/01/02 12:33:04;;;;;;;10.23;6.40;;;4.50;99.90;;;;;;5055007;28;20219;-69
2021/01/02 12:35:30;;;;;;;11.30;6.90;;;4.50;99.90;;;;;;5083698;28;20218;-68
2021/01/02 12:37:56;;;;;;;12.43;7.43;;;4.50;99.90;;;;;;5074391;28;20225;-71
2021/01/02 12:40:23;;;;;;;8.17;5.00;;;4.50;99.90;;;;;;5066258;28;20465;-72
2021/01/02 12:42:49;;;;;;;8.40;4.80;;;4.40;99.90;;;;;;5085878;28;20457;-73
2021/01/02 12:45:15;;;;;;;6.37;4.03;;;4.50;99.90;;;;;;5083421;28;21042;-72
2021/01/02 12:47:41;;;;;;;7.53;4.30;;;4.50;99.90;;;;;;5064660;28;20248;-72
2021/01/02 12:50:10;;;;;;;6.90;3.80;;;4.40;99.90;;;;;;5064404;28;20851;-73
2021/01/02 12:52:36;;;;;;;5.93;3.77;;;4.50;99.90;;;;;;5076188;28;20223;-72
2021/01/02 12:55:06;;;;;;;5.90;3.83;;;4.40;99.90;;;;;;5102569;28;20457;-74
2021/01/02 12:57:32;;;;;;;6.13;4.23;;;4.50;99.90;;;;;;5082582;28;20223;-73
2021/01/02 13:00:05;;;;;;;6.20;3.83;;;4.40;99.90;;;;;;5069942;28;20515;-70
2021/01/02 13:02:30;;;;;;;4.63;3.03;;;4.40;99.90;;;;;;5084231;28;20219;-72
2021/01/02 13:04:56;;;;;;;3.87;3.43;;;4.40;99.90;;;;;;5070483;28;21101;-74
2021/01/02 13:07:22;;;;;;;7.90;4.30;;;4.40;99.90;;;;;;5071252;28;20214;-70
2021/01/02 13:09:48;;;;;;;6.60;3.53;;;4.40;99.90;;;;;;5071367;27;20495;-71